Relevés horaires Bierset (Belgique)


Relevés horaires à Bierset - Samedi 08 Juill. 2017
Heure UTC1 Température [°C] Vent [km/h] Hum. [%] Pres.4 [hPa] Visi. [Km] Nébu. [octa] Préc.5 [mm] Cond.
2m. Res. Ros. Dir.2 Vit. Moy. Raf.3
23:00 17.8 17.8 15.3 N 3.7 5.6 9.3 85 1017.4(0.6/3h) 15 5/8 -- --
22:00 18.2 18.2 15.2 N 5.6 7.4 9.3 83 1017.3(0.5/3h) 15 2/8 -- --
21:00 18.9 18.9 15.5 NNO 5.6 9.3 11.1 81 1017.1(0.7/3h) 15 3/8 -- --
20:00 20.5 20.5 15.8 NO 5.6 7.4 11.1 74 1016.6(0.2/3h) 20 6/8 -- --
19:00 22.1 22.1 15.9 NNO 7.4 9.3 11.1 68 1016.4(0.3/3h) 20 6/8 -- --
18:00 22.9 22.9 16.0 NO 9.3 11.1 16.7 65 1016.2(-0.1/3h) 18 5/8 0/12h
--
17:00 23.9 23.9 16.7 NO 7.4 9.3 13.0 64 1016.1(-0.6/3h) 25 6/8 -- --
16:00 25.0 25.0 15.7 O 7.4 9.3 13.0 56 1015.9(-0.8/3h) 25 6/8 -- --
15:00 25.6 25.6 15.5 OSO 9.3 11.1 16.7 54 1016.1(-0.7/3h) 25 5/8 -- --
14:00 25.2 25.2 15.5 O 9.3 9.3 14.8 55 1016.6(-0.4/3h) 25 6/8 -- --
13:00 25.4 25.4 14.6 O 7.4 9.3 13.0 51 1016.7(-0.3/3h) 25 6/8 -- --
12:00 25.0 25.0 16.0 O 7.4 9.3 13.0 57 1016.9(0.0/3h) 25 6/8 0/6h
--
11:00 24.6 24.6 15.3 O 7.4 9.3 13.0 56 1017.1(0.4/3h) 25 6/8 -- --
10:00 23.3 23.3 13.8 SO 7.4 7.4 13.0 55 1017.2(0.5/3h) 25 3/8 -- --
09:00 22.4 22.4 10.9 OSO 3.7 5.6 9.3 48 1017.1(0.6/3h) 20 3/8 -- --
08:00 21.3 21.3 10.0 OSO 3.7 5.6 7.4 48 1016.9(0.3/3h) 20 3/8 -- --
07:00 19.5 19.5 11.2 O 5.6 5.6 9.3 59 1017(0.3/3h) 20 3/8 -- --
06:00 18.2 18.2 11.7 SO 7.4 7.4 14.8 66 1016.8(-0.1/3h) 12 4/8 0/12h
--
05:00 17.1 17.1 13.4 SSO 5.6 5.6 14.8 79 1016.9(0.0/3h) 12 6/8 -- --
04:00 16.9 16.9 14.1 S 3.7 5.6 14.8 84 1016.9(-0.3/3h) 9 2/8 -- --
03:00 17.3 17.3 14.2 SO 3.7 3.7 5.6 82 1016.7(-0.8/3h) 9 1/8 -- --
02:00 18.7 18.7 13.9 SSO 1.9 1.9 5.6 74 1016.8(-0.7/3h) 15 0/8 -- --
01:00 18.8 18.8 13.5 NNO 0.0 1.9 1.9 71 1017(-0.6/3h) 30 0/8 -- --
00:00 20.2 20.2 13.1 ESE 1.9 7.4 9.3 64 1017.3(0.2/3h) 30 3/8 0/6h
0/24h
--

1 Coordinated Universal Time. Actuellement il est 11:00 locale et 09:00 UTC.

2 Le vent souffle depuis la direction indiquée vers la direction oposée.

3 Les rafales max. sont disponible 40 min après l'heure du relevé.

4 Pour les stations d'altitude (plus de 600m) le géopotentiel du niveau le plus proche de la pression obligatoire est indiqué.

5 Les stations disposant d'un diffuseur peuvent indiquer "trace". Cela signifie que des précipitations ont touchés le sol mais que la quantité est inférieure à 0.1 mm.

Récapitulatif de la journée
Température [°C] Vent [km/h] Ensoleillement4 [h] Precipitations totale5 [mm] Pression [Hpa]
Min1 Max.2 Moy.3 Max. Min Max.
16.7 26.2 7.3 16.7 0 h 0 min 0 1015.9 1017.4

1 Température minimale relevée entre 18:00 UTC la veille et 18:00 UTC le jour donné.

2 Température maximale relevée entre 06:00 UTC le jour donné et 06:00 UTC le lendemain.

3 Vent moyen de la journée basé sur les relevés horaires.

4 Ensoleillement en heures relevé entre 06:00 UTC la veille et 06:00 UTC le jour donné.

5 Précipitations totales tombées entre 06:00 UTC la jour donné et 06:00 UTC le lendemain.

Graphiques horaires